createdAt,value
2022-10-21T00:02:10.850Z,23.40
2022-10-21T00:04:42.546Z,27.20
2022-10-21T00:07:14.201Z,27.70
2022-10-21T00:09:45.916Z,26.00
2022-10-21T00:12:17.479Z,28.80
2022-10-21T00:14:51.562Z,28.60
2022-10-21T00:17:25.617Z,27.10
2022-10-21T00:19:57.301Z,21.70
2022-10-21T00:22:28.821Z,26.60
2022-10-21T00:25:00.467Z,32.40
2022-10-21T00:27:32.273Z,26.00
2022-10-21T00:30:07.474Z,31.30
2022-10-21T00:32:39.920Z,30.70
2022-10-21T00:37:42.099Z,33.60
2022-10-21T00:40:14.339Z,56.90
2022-10-21T00:42:46.963Z,28.30
2022-10-21T00:45:23.292Z,30.80
2022-10-21T00:48:00.925Z,27.60
2022-10-21T00:50:38.853Z,26.60
2022-10-21T00:53:15.774Z,34.90
2022-10-21T00:55:51.651Z,27.60
2022-10-21T00:58:26.335Z,30.50
2022-10-21T01:00:59.835Z,28.90
2022-10-21T01:03:33.170Z,28.00
2022-10-21T01:06:08.199Z,29.80
2022-10-21T01:08:40.179Z,32.30
2022-10-21T01:11:15.694Z,26.20
2022-10-21T01:13:59.471Z,29.90
2022-10-21T01:16:44.345Z,32.10
2022-10-21T01:19:42.604Z,25.50
2022-10-21T01:22:30.848Z,32.40
2022-10-21T01:25:25.040Z,27.50
2022-10-21T01:28:05.557Z,32.10
2022-10-21T01:30:42.778Z,33.50
2022-10-21T01:33:42.934Z,42.20
2022-10-21T01:36:26.017Z,27.80
2022-10-21T01:39:08.975Z,32.60
2022-10-21T01:41:46.060Z,37.30
2022-10-21T01:44:23.885Z,34.20
2022-10-21T01:47:00.451Z,31.00
2022-10-21T01:49:37.337Z,27.30
2022-10-21T01:52:09.869Z,31.50
2022-10-21T01:54:45.646Z,34.40
2022-10-21T01:57:21.931Z,31.40
2022-10-21T01:59:55.498Z,33.10
2022-10-21T02:02:33.216Z,33.60
2022-10-21T02:05:13.629Z,29.60
2022-10-21T02:07:45.311Z,37.80
2022-10-21T02:10:19.221Z,33.80
2022-10-21T02:12:55.977Z,29.90
2022-10-21T02:15:31.042Z,36.80
2022-10-21T02:18:08.324Z,37.30
2022-10-21T02:20:43.541Z,33.00
2022-10-21T02:23:18.166Z,30.80
2022-10-21T02:25:51.851Z,34.40
2022-10-21T02:28:23.726Z,37.30
2022-10-21T02:31:06.375Z,31.20
2022-10-21T02:33:52.058Z,33.60
2022-10-21T02:36:31.385Z,33.50
2022-10-21T02:39:08.349Z,37.00
2022-10-21T02:41:41.681Z,35.70
2022-10-21T02:44:14.116Z,40.50
2022-10-21T02:46:48.224Z,35.80
2022-10-21T02:49:20.088Z,38.50
2022-10-21T02:51:51.761Z,23.10
2022-10-21T02:54:23.478Z,34.00
2022-10-21T02:56:55.101Z,39.00
2022-10-21T02:59:26.906Z,41.30
2022-10-21T03:01:58.486Z,37.10
2022-10-21T03:04:30.146Z,43.00
2022-10-21T03:07:01.860Z,37.00
2022-10-21T03:09:33.449Z,42.80
2022-10-21T03:12:05.101Z,40.00
2022-10-21T03:14:36.971Z,39.40
2022-10-21T03:17:08.566Z,43.00
2022-10-21T03:19:40.183Z,42.70
2022-10-21T03:22:11.942Z,42.60
2022-10-21T03:24:43.573Z,37.60
2022-10-21T03:27:15.957Z,45.90
2022-10-21T03:29:50.257Z,39.20
2022-10-21T03:32:21.849Z,48.10
2022-10-21T03:34:53.733Z,38.80
2022-10-21T03:37:25.420Z,39.30
2022-10-21T03:39:57.243Z,39.90
2022-10-21T03:42:29.753Z,27.60
2022-10-21T03:45:02.507Z,40.40
2022-10-21T03:47:34.229Z,39.40
2022-10-21T03:50:11.868Z,40.40
2022-10-21T03:52:45.919Z,36.10
2022-10-21T03:55:20.674Z,40.40
2022-10-21T03:57:53.159Z,39.00
2022-10-21T04:02:58.867Z,42.10
2022-10-21T04:05:30.571Z,39.40
2022-10-21T04:08:02.402Z,40.40
2022-10-21T04:10:33.935Z,34.70
2022-10-21T04:13:06.335Z,37.60
2022-10-21T04:15:37.891Z,38.20
2022-10-21T04:18:09.934Z,40.20
2022-10-21T04:20:42.179Z,41.40
2022-10-21T04:23:13.717Z,41.50
2022-10-21T04:25:47.848Z,47.20
2022-10-21T04:28:19.650Z,43.40
2022-10-21T04:30:51.736Z,32.20
2022-10-21T04:33:23.485Z,30.90
2022-10-21T04:35:56.681Z,47.60
2022-10-21T04:38:28.985Z,48.30
2022-10-21T04:41:02.806Z,47.00
2022-10-21T04:43:34.337Z,40.80
2022-10-21T04:46:12.063Z,39.90
2022-10-21T04:48:46.102Z,41.80
2022-10-21T04:51:18.119Z,37.80
2022-10-21T04:53:50.081Z,39.40
2022-10-21T04:56:21.720Z,44.30
2022-10-21T04:58:53.252Z,41.30
2022-10-21T05:01:24.984Z,47.00
2022-10-21T05:03:56.706Z,34.00
2022-10-21T05:06:28.444Z,42.90
2022-10-21T05:09:00.620Z,36.00
2022-10-21T05:11:32.396Z,46.90
2022-10-21T05:14:04.025Z,49.70
2022-10-21T05:16:36.133Z,43.20
2022-10-21T05:19:07.938Z,34.10
2022-10-21T05:21:39.531Z,51.40
2022-10-21T05:24:11.181Z,41.80
2022-10-21T05:26:43.041Z,43.20
2022-10-21T05:29:15.162Z,46.60
2022-10-21T05:31:47.101Z,44.80
2022-10-21T05:34:19.450Z,39.40
2022-10-21T05:36:51.434Z,44.60
2022-10-21T05:39:23.026Z,44.20
2022-10-21T05:41:54.790Z,45.80
2022-10-21T05:44:26.763Z,52.80
2022-10-21T05:46:58.433Z,47.30
2022-10-21T05:49:30.110Z,50.80
2022-10-21T05:52:02.248Z,48.90
2022-10-21T05:54:34.518Z,49.70
2022-10-21T05:57:06.212Z,47.90
2022-10-21T05:59:37.898Z,50.70
2022-10-21T06:02:10.132Z,32.80
2022-10-21T06:04:44.050Z,50.30
2022-10-21T06:07:15.856Z,48.10
2022-10-21T06:09:47.636Z,56.70
2022-10-21T06:12:19.285Z,50.30
2022-10-21T06:14:51.648Z,47.30
2022-10-21T06:17:23.963Z,50.60
2022-10-21T06:19:56.058Z,48.50
2022-10-21T06:22:27.690Z,47.70
2022-10-21T06:24:59.582Z,32.10
2022-10-21T06:27:31.360Z,44.60
2022-10-21T06:30:03.062Z,50.90
2022-10-21T06:32:35.659Z,44.90
2022-10-21T06:35:07.920Z,49.00
2022-10-21T06:37:39.881Z,44.20
2022-10-21T06:40:12.990Z,46.00
2022-10-21T06:42:45.081Z,45.50
2022-10-21T06:45:17.108Z,34.60
2022-10-21T06:47:48.765Z,45.20
2022-10-21T06:50:20.739Z,47.80
2022-10-21T06:52:52.405Z,57.70
2022-10-21T06:55:24.852Z,41.20
2022-10-21T06:57:56.640Z,41.10
2022-10-21T07:03:05.140Z,42.20
2022-10-21T07:05:36.788Z,37.10
2022-10-21T07:08:10.621Z,46.10
2022-10-21T07:10:46.065Z,43.50
2022-10-21T07:13:21.110Z,46.60
2022-10-21T07:16:02.550Z,42.80
2022-10-21T07:18:37.003Z,42.20
2022-10-21T07:21:18.021Z,45.00
2022-10-21T07:23:51.324Z,44.40
2022-10-21T07:26:24.799Z,48.10
2022-10-21T07:28:58.754Z,50.30
2022-10-21T07:31:32.895Z,47.40
2022-10-21T07:34:08.186Z,52.00
2022-10-21T07:36:42.383Z,54.20
2022-10-21T07:39:16.830Z,49.70
2022-10-21T07:41:53.193Z,52.70
2022-10-21T07:44:27.478Z,42.60
2022-10-21T07:46:59.648Z,40.40
2022-10-21T07:49:31.616Z,49.60
2022-10-21T07:52:03.285Z,49.30
2022-10-21T07:54:35.035Z,46.00
2022-10-21T07:57:07.009Z,45.70
2022-10-21T07:59:39.334Z,56.90
2022-10-21T08:02:13.317Z,54.10
2022-10-21T08:04:45.154Z,50.10
2022-10-21T08:07:16.901Z,46.70
2022-10-21T08:09:48.667Z,45.90
2022-10-21T08:12:20.361Z,40.10
2022-10-21T08:14:53.049Z,43.30
2022-10-21T08:17:26.327Z,40.30
2022-10-21T08:19:58.161Z,41.70
2022-10-21T08:22:30.063Z,44.80
2022-10-21T08:25:01.876Z,34.20
2022-10-21T08:27:34.693Z,36.90
2022-10-21T08:30:07.602Z,35.60
2022-10-21T08:32:40.080Z,37.20
2022-10-21T08:35:12.733Z,45.70
2022-10-21T08:37:48.837Z,40.70
2022-10-21T08:40:21.468Z,42.20
2022-10-21T08:42:53.611Z,37.10
2022-10-21T08:45:39.244Z,27.90
2022-10-21T08:48:19.850Z,34.70
2022-10-21T08:50:53.373Z,37.90
2022-10-21T08:53:31.130Z,40.10
2022-10-21T08:56:07.914Z,39.00
2022-10-21T08:58:39.862Z,44.50
2022-10-21T09:01:24.645Z,30.80
2022-10-21T09:04:01.374Z,40.00
2022-10-21T09:06:40.554Z,38.40
2022-10-21T09:09:20.695Z,32.50
2022-10-21T09:12:07.118Z,42.90
2022-10-21T09:14:57.274Z,33.30
2022-10-21T09:17:50.507Z,36.20
2022-10-21T09:23:08.954Z,48.20
2022-10-21T09:25:47.289Z,36.00
2022-10-21T09:28:19.021Z,46.40
2022-10-21T09:30:51.916Z,39.90
2022-10-21T09:36:02.707Z,35.40
2022-10-21T09:38:45.961Z,35.70
2022-10-21T09:43:56.401Z,34.50
2022-10-21T09:46:28.206Z,32.30
2022-10-21T09:49:36.762Z,32.70
2022-10-21T09:51:52.690Z,33.20
2022-10-21T09:54:27.942Z,32.70
2022-10-21T09:57:05.243Z,32.90
2022-10-21T09:59:37.711Z,34.90
2022-10-21T10:02:16.344Z,32.50
2022-10-21T10:04:48.010Z,30.40
2022-10-21T10:07:34.673Z,33.30
2022-10-21T10:10:29.256Z,28.80
2022-10-21T10:13:01.419Z,30.90
2022-10-21T10:18:23.363Z,34.20
2022-10-21T10:21:13.251Z,33.30
2022-10-21T10:23:50.530Z,31.20
2022-10-21T10:26:30.112Z,32.00
2022-10-21T10:29:09.641Z,31.80
2022-10-21T10:31:50.682Z,31.40
2022-10-21T10:34:25.387Z,35.00
2022-10-21T10:37:08.174Z,27.70
2022-10-21T10:39:44.251Z,34.10
2022-10-21T10:42:23.471Z,30.10
2022-10-21T10:44:57.880Z,28.40
2022-10-21T10:47:32.460Z,33.40
2022-10-21T10:50:04.822Z,34.10
2022-10-21T10:52:36.486Z,32.00
2022-10-21T10:55:19.717Z,38.50
2022-10-21T10:58:10.686Z,32.00
2022-10-21T11:03:26.090Z,33.20
2022-10-21T11:06:06.849Z,40.60
2022-10-21T11:08:43.716Z,28.70
2022-10-21T11:11:21.729Z,30.60
2022-10-21T11:13:54.522Z,29.10
2022-10-21T11:19:31.207Z,24.20
2022-10-21T11:22:13.185Z,26.10
2022-10-21T11:24:55.410Z,28.20
2022-10-21T11:27:49.915Z,22.70
2022-10-21T11:30:24.419Z,29.60
2022-10-21T11:33:11.419Z,42.50
2022-10-21T11:35:58.027Z,22.90
2022-10-21T11:38:49.780Z,30.90
2022-10-21T11:41:32.112Z,29.00
2022-10-21T11:44:16.378Z,20.90
2022-10-21T11:46:59.143Z,30.40
2022-10-21T11:49:44.705Z,32.10
2022-10-21T11:52:28.155Z,24.60
2022-10-21T11:57:50.987Z,25.30
2022-10-21T12:00:25.166Z,30.10
2022-10-21T12:03:26.104Z,24.30
2022-10-21T12:06:03.819Z,21.50
2022-10-21T12:08:44.376Z,23.60
2022-10-21T12:11:23.433Z,24.50
2022-10-21T12:13:59.044Z,22.30
2022-10-21T12:16:34.628Z,25.30
2022-10-21T12:19:11.947Z,24.10
2022-10-21T12:21:46.735Z,25.60
2022-10-21T12:24:29.807Z,19.20
2022-10-21T12:27:11.089Z,21.50
2022-10-21T12:29:53.408Z,20.60
2022-10-21T12:32:31.209Z,19.40
2022-10-21T12:35:03.807Z,28.50
2022-10-21T12:38:22.338Z,28.80
2022-10-21T12:41:27.823Z,26.00
2022-10-21T12:44:15.839Z,20.50
2022-10-21T12:46:50.680Z,19.00
2022-10-21T12:49:26.214Z,27.50
2022-10-21T12:52:10.107Z,25.50
2022-10-21T12:54:52.344Z,20.80
2022-10-21T12:57:31.413Z,14.60
2022-10-21T13:00:32.799Z,28.50
2022-10-21T13:03:07.889Z,30.60
2022-10-21T13:06:03.552Z,29.70
2022-10-21T13:08:52.780Z,25.60
2022-10-21T13:11:38.239Z,24.40
2022-10-21T13:14:35.383Z,23.20
2022-10-21T13:17:31.689Z,26.90
2022-10-21T13:20:40.573Z,24.90
2022-10-21T13:23:32.341Z,21.20
2022-10-21T13:26:14.799Z,24.60
2022-10-21T13:29:19.771Z,26.20
2022-10-21T13:32:31.005Z,21.20
2022-10-21T13:35:08.880Z,22.70
2022-10-21T13:37:44.920Z,25.40
2022-10-21T13:40:30.619Z,23.20
2022-10-21T13:43:06.664Z,26.90
2022-10-21T13:45:44.449Z,30.40
2022-10-21T13:48:18.658Z,23.90
2022-10-21T13:50:52.000Z,22.10
2022-10-21T13:53:28.560Z,24.30
2022-10-21T13:56:03.423Z,25.60
2022-10-21T13:58:40.195Z,26.30
2022-10-21T14:01:14.462Z,19.90
2022-10-21T14:03:46.795Z,25.80
2022-10-21T14:06:30.305Z,20.80
2022-10-21T14:09:08.048Z,28.40
2022-10-21T14:11:48.701Z,23.40
2022-10-21T14:14:24.692Z,21.90
2022-10-21T14:17:00.289Z,21.00
2022-10-21T14:19:35.328Z,20.70
2022-10-21T14:22:09.847Z,24.70
2022-10-21T14:24:44.331Z,24.00
2022-10-21T14:27:20.788Z,24.90
2022-10-21T14:29:53.158Z,22.20
2022-10-21T14:32:28.128Z,28.90
2022-10-21T14:35:07.053Z,28.00
2022-10-21T14:37:45.622Z,62.50
2022-10-21T14:40:26.734Z,37.70
2022-10-21T14:42:59.557Z,42.10
2022-10-21T14:48:17.407Z,27.40
2022-10-21T14:50:56.295Z,26.50
2022-10-21T14:53:32.679Z,31.80
2022-10-21T14:56:07.769Z,31.70
2022-10-21T14:58:41.142Z,32.90
2022-10-21T15:01:17.766Z,58.60
2022-10-21T15:03:51.953Z,89.80
2022-10-21T15:06:25.851Z,98.60
2022-10-21T15:09:17.062Z,97.10
2022-10-21T15:11:49.554Z,86.60
2022-10-21T15:14:28.735Z,71.80
2022-10-21T15:17:03.922Z,56.30
2022-10-21T15:19:45.837Z,49.40
2022-10-21T15:22:30.960Z,53.10
2022-10-21T15:25:08.987Z,50.00
2022-10-21T15:27:44.337Z,30.40
2022-10-21T15:30:21.471Z,35.40
2022-10-21T15:32:55.178Z,51.60
2022-10-21T15:35:26.944Z,32.30
2022-10-21T15:37:58.632Z,48.90
2022-10-21T15:40:32.842Z,26.70
2022-10-21T15:43:05.031Z,27.80
2022-10-21T15:45:36.750Z,29.30
2022-10-21T15:48:12.611Z,29.30
2022-10-21T15:50:44.636Z,32.90
2022-10-21T15:53:16.539Z,29.30
2022-10-21T15:55:48.922Z,31.60
2022-10-21T15:58:20.726Z,31.20
2022-10-21T16:00:53.418Z,25.00
2022-10-21T16:05:55.726Z,34.90
2022-10-21T16:08:27.772Z,37.40
2022-10-21T16:10:59.700Z,30.00
2022-10-21T16:13:31.697Z,36.00
2022-10-21T16:16:05.122Z,32.00
2022-10-21T16:18:36.913Z,26.70
2022-10-21T16:21:10.093Z,30.20
2022-10-21T16:23:42.434Z,27.90
2022-10-21T16:26:20.650Z,29.50
2022-10-21T16:28:53.629Z,33.70
2022-10-21T16:31:27.760Z,28.90
2022-10-21T16:33:59.601Z,37.00
2022-10-21T16:36:36.902Z,33.50
2022-10-21T16:39:14.621Z,31.20
2022-10-21T16:41:46.422Z,33.70
2022-10-21T16:44:18.872Z,44.90
2022-10-21T16:46:53.442Z,37.40
2022-10-21T16:49:28.035Z,39.10
2022-10-21T16:52:00.923Z,27.30
2022-10-21T16:54:34.215Z,33.10
2022-10-21T16:57:06.939Z,36.80
2022-10-21T16:59:39.003Z,36.50
2022-10-21T17:02:17.278Z,36.50
2022-10-21T17:04:49.183Z,33.80
2022-10-21T17:07:20.985Z,32.30
2022-10-21T17:09:52.912Z,35.60
2022-10-21T17:12:25.950Z,31.20
2022-10-21T17:14:57.805Z,35.10
2022-10-21T17:17:29.749Z,39.30
2022-10-21T17:20:01.492Z,31.10
2022-10-21T17:22:33.627Z,20.70
2022-10-21T17:25:05.907Z,33.60
2022-10-21T17:27:37.822Z,31.70
2022-10-21T17:30:12.370Z,43.90
2022-10-21T17:32:44.463Z,38.50
2022-10-21T17:35:19.791Z,36.00
2022-10-21T17:37:52.911Z,39.50
2022-10-21T17:40:26.884Z,32.50
2022-10-21T17:42:59.231Z,35.30
2022-10-21T17:45:31.116Z,35.30
2022-10-21T17:48:03.710Z,37.90
2022-10-21T17:50:36.631Z,36.40
2022-10-21T17:53:08.804Z,32.30
2022-10-21T17:55:40.625Z,27.60
2022-10-21T17:58:12.476Z,40.00
2022-10-21T18:00:44.821Z,32.00
2022-10-21T18:03:18.291Z,35.50
2022-10-21T18:05:50.804Z,35.80
2022-10-21T18:08:22.859Z,31.00
2022-10-21T18:10:56.322Z,34.80
2022-10-21T18:13:30.538Z,34.00
2022-10-21T18:16:17.434Z,38.30
2022-10-21T18:18:49.861Z,37.10
2022-10-21T18:21:24.190Z,36.90
2022-10-21T18:23:57.152Z,43.00
2022-10-21T18:26:30.892Z,37.50
2022-10-21T18:29:05.870Z,42.30
2022-10-21T18:31:38.767Z,42.90
2022-10-21T18:34:12.855Z,50.70
2022-10-21T18:36:45.249Z,43.10
2022-10-21T18:39:17.179Z,48.60
2022-10-21T18:41:49.359Z,50.80
2022-10-21T18:44:21.231Z,53.50
2022-10-21T18:46:55.939Z,55.00
2022-10-21T18:49:28.371Z,53.30
2022-10-21T18:52:00.592Z,52.00
2022-10-21T18:54:32.807Z,55.10
2022-10-21T18:57:07.774Z,53.80
2022-10-21T18:59:40.017Z,58.30
2022-10-21T19:02:17.995Z,62.20
2022-10-21T19:04:50.558Z,53.00
2022-10-21T19:07:23.097Z,49.80
2022-10-21T19:09:55.004Z,47.30
2022-10-21T19:12:27.112Z,51.70
2022-10-21T19:14:59.453Z,51.20
2022-10-21T19:17:32.623Z,53.20
2022-10-21T19:20:05.098Z,54.10
2022-10-21T19:25:09.877Z,56.20
2022-10-21T19:27:42.091Z,70.60
2022-10-21T19:30:15.175Z,71.10
2022-10-21T19:32:47.202Z,59.40
2022-10-21T19:35:20.113Z,59.10
2022-10-21T19:37:52.594Z,58.10
2022-10-21T19:40:25.250Z,54.90
2022-10-21T19:42:58.307Z,53.70
2022-10-21T19:45:30.422Z,58.10
2022-10-21T19:48:03.422Z,53.20
2022-10-21T19:50:37.498Z,51.90
2022-10-21T19:53:09.662Z,51.90
2022-10-21T19:55:41.668Z,53.00
2022-10-21T19:58:13.617Z,51.50
2022-10-21T20:00:45.556Z,51.70
2022-10-21T20:03:18.515Z,57.40
2022-10-21T20:05:50.742Z,54.70
2022-10-21T20:08:22.729Z,63.30
2022-10-21T20:11:12.521Z,57.80
2022-10-21T20:13:46.060Z,57.80
2022-10-21T20:16:21.660Z,47.30
2022-10-21T20:18:56.702Z,48.10
2022-10-21T20:21:28.783Z,53.40
2022-10-21T20:24:02.008Z,52.10
2022-10-21T20:26:34.871Z,49.60
2022-10-21T20:29:06.940Z,44.70
2022-10-21T20:31:38.938Z,46.90
2022-10-21T20:34:14.539Z,49.00
2022-10-21T20:36:47.235Z,49.20
2022-10-21T20:39:19.089Z,52.00
2022-10-21T20:41:51.014Z,48.20
2022-10-21T20:44:22.904Z,53.00
2022-10-21T20:46:54.708Z,44.50
2022-10-21T20:49:26.649Z,53.70
2022-10-21T20:51:58.604Z,35.50
2022-10-21T20:54:31.408Z,49.70
2022-10-21T20:59:36.461Z,49.80
2022-10-21T21:02:10.449Z,51.30
2022-10-21T21:04:42.120Z,52.10
2022-10-21T21:07:14.910Z,52.30
2022-10-21T21:10:03.449Z,51.50
2022-10-21T21:12:35.503Z,51.30
2022-10-21T21:15:09.326Z,61.20
2022-10-21T21:17:40.931Z,47.10
2022-10-21T21:20:13.379Z,50.40
2022-10-21T21:22:45.262Z,54.50
2022-10-21T21:25:16.906Z,48.90
2022-10-21T21:27:48.742Z,61.90
2022-10-21T21:30:20.535Z,53.10
2022-10-21T21:32:52.359Z,44.20
2022-10-21T21:35:24.354Z,58.40
2022-10-21T21:37:56.131Z,55.80
2022-10-21T21:40:29.237Z,50.50
2022-10-21T21:43:00.831Z,52.70
2022-10-21T21:45:32.466Z,46.00
2022-10-21T21:48:04.317Z,44.20
2022-10-21T21:50:36.148Z,52.40
2022-10-21T21:53:08.779Z,40.50
2022-10-21T21:55:40.560Z,42.30
2022-10-21T21:58:12.747Z,34.10
2022-10-21T22:00:44.358Z,34.20
2022-10-21T22:03:16.053Z,32.80
2022-10-21T22:05:47.921Z,32.00
2022-10-21T22:08:19.490Z,27.70
2022-10-21T22:10:51.119Z,28.00
2022-10-21T22:13:22.730Z,28.60
2022-10-21T22:15:54.331Z,29.70
2022-10-21T22:18:26.180Z,31.10
2022-10-21T22:21:01.290Z,18.80
2022-10-21T22:23:33.151Z,33.70
2022-10-21T22:26:05.240Z,46.30
2022-10-21T22:28:36.852Z,36.30
2022-10-21T22:31:11.168Z,35.90
2022-10-21T22:36:21.444Z,35.90
2022-10-21T22:38:53.466Z,33.70
2022-10-21T22:41:25.093Z,44.00
2022-10-21T22:43:56.693Z,38.90
2022-10-21T22:46:33.958Z,36.30
2022-10-21T22:49:07.223Z,39.10
2022-10-21T22:51:38.800Z,38.00
2022-10-21T22:54:24.293Z,43.80
2022-10-21T22:57:03.619Z,45.60
2022-10-21T22:59:37.054Z,44.80
2022-10-21T23:02:09.280Z,36.20
2022-10-21T23:04:40.866Z,41.80
2022-10-21T23:07:12.507Z,39.20
2022-10-21T23:09:44.188Z,39.30
2022-10-21T23:12:16.787Z,37.00
2022-10-21T23:14:48.539Z,36.90
2022-10-21T23:17:20.190Z,40.30
2022-10-21T23:19:51.780Z,40.20
2022-10-21T23:22:23.587Z,45.00
2022-10-21T23:24:55.210Z,46.20
2022-10-21T23:27:28.076Z,37.70
2022-10-21T23:29:59.783Z,39.00
2022-10-21T23:32:31.425Z,36.50
2022-10-21T23:35:03.267Z,42.40
2022-10-21T23:37:35.052Z,38.30
2022-10-21T23:40:08.290Z,41.40
2022-10-21T23:42:42.843Z,41.80
2022-10-21T23:45:14.882Z,40.20
2022-10-21T23:47:46.496Z,39.10
2022-10-21T23:50:18.820Z,38.80
2022-10-21T23:52:50.530Z,40.60
2022-10-21T23:55:22.462Z,41.70
2022-10-21T23:57:54.096Z,42.50
